Raron Airport LSTA

Flugplatz Daten

Name: Raron Airport

Ident: LSTA

Lat: 46,30360031

Long: 7,823329926

Platzhöhe: 2029 ft

IataCode:

City: Raron

Metar

2020/10/15 12:56
KFBG 151256Z VRB02KT 10SM CLR 13/12 A3008 RMK AO2A SLPNO WND DATA ESTMD SLSTAG ESTMD

Taf

Gewünschte Webcam nicht vorhanden? Dann fügen Sie eine hinzu. Sie wird dann so schnell wie möglich freigeschaltet
Url: Title: